createdAt,value
2018-08-04T00:00:57.804Z,98089.63
2018-08-04T00:03:26.829Z,98088.83
2018-08-04T00:05:55.627Z,98087.44
2018-08-04T00:08:24.410Z,98094.34
2018-08-04T00:10:53.129Z,98087.05
2018-08-04T00:13:21.968Z,98088.63
2018-08-04T00:15:50.607Z,98084.67
2018-08-04T00:18:19.534Z,98075.23
2018-08-04T00:20:48.309Z,98079.96
2018-08-04T00:23:17.081Z,98081.34
2018-08-04T00:25:45.729Z,98075.43
2018-08-04T00:28:14.542Z,98082.70
2018-08-04T00:30:43.294Z,98077.34
2018-08-04T00:33:12.085Z,98073.20
2018-08-04T00:35:40.857Z,98071.23
2018-08-04T00:38:09.716Z,98071.44
2018-08-04T00:40:38.448Z,98072.25
2018-08-04T00:43:07.239Z,98074.21
2018-08-04T00:45:36.001Z,98069.68
2018-08-04T00:48:04.784Z,98067.69
2018-08-04T00:50:33.707Z,98073.20
2018-08-04T00:53:02.356Z,98067.66
2018-08-04T00:55:31.062Z,98066.06
2018-08-04T00:57:59.880Z,98069.23
2018-08-04T01:00:28.596Z,98065.67
2018-08-04T01:02:57.309Z,98066.05
2018-08-04T01:05:25.946Z,98068.23
2018-08-04T01:07:54.602Z,98063.11
2018-08-04T01:10:23.307Z,98062.50
2018-08-04T01:12:52.134Z,98061.28
2018-08-04T01:15:20.932Z,98071.14
2018-08-04T01:17:49.773Z,98067.00
2018-08-04T01:20:18.524Z,98065.23
2018-08-04T01:22:47.309Z,98064.02
2018-08-04T01:25:16.138Z,98069.09
2018-08-04T01:27:44.785Z,98067.67
2018-08-04T01:30:13.471Z,98065.50
2018-08-04T01:32:42.331Z,98060.19
2018-08-04T01:35:11.071Z,98060.94
2018-08-04T01:37:39.712Z,98059.75
2018-08-04T01:40:08.434Z,98051.91
2018-08-04T01:42:37.071Z,98056.80
2018-08-04T01:45:06.050Z,98056.41
2018-08-04T01:47:34.782Z,98054.44
2018-08-04T01:50:03.546Z,98048.92
2018-08-04T01:52:32.194Z,98047.14
2018-08-04T01:55:00.853Z,98046.95
2018-08-04T01:57:29.685Z,98053.25
2018-08-04T01:59:58.756Z,98048.30
2018-08-04T02:02:27.540Z,98051.02
2018-08-04T02:04:56.197Z,98051.17
2018-08-04T02:07:25.022Z,98052.98
2018-08-04T02:09:53.702Z,98052.78
2018-08-04T02:12:22.759Z,98046.84
2018-08-04T02:14:51.535Z,98040.34
2018-08-04T02:17:20.333Z,98034.04
2018-08-04T02:19:49.078Z,98032.66
2018-08-04T02:22:17.736Z,98035.61
2018-08-04T02:24:46.665Z,98024.75
2018-08-04T02:27:15.427Z,98029.07
2018-08-04T02:29:44.250Z,98025.13
2018-08-04T02:32:13.150Z,98019.98
2018-08-04T02:34:42.136Z,98020.13
2018-08-04T02:37:10.873Z,98019.37
2018-08-04T02:39:39.681Z,98027.61
2018-08-04T02:42:08.396Z,98030.56
2018-08-04T02:44:37.140Z,98031.55
2018-08-04T02:47:05.833Z,98028.39
2018-08-04T02:49:34.620Z,98028.59
2018-08-04T02:52:03.482Z,98026.00
2018-08-04T02:54:32.193Z,98029.77
2018-08-04T02:57:00.862Z,98024.39
2018-08-04T02:59:29.523Z,98021.39
2018-08-04T03:01:58.275Z,98029.05
2018-08-04T03:04:27.042Z,98024.92
2018-08-04T03:06:55.726Z,98024.52
2018-08-04T03:09:24.437Z,98019.55
2018-08-04T03:11:53.124Z,98015.22
2018-08-04T03:14:21.985Z,98015.03
2018-08-04T03:16:50.770Z,98017.98
2018-08-04T03:19:20.015Z,98019.16
2018-08-04T03:21:48.698Z,98018.53
2018-08-04T03:24:17.383Z,98024.04
2018-08-04T03:26:46.063Z,98027.97
2018-08-04T03:29:14.741Z,98024.41
2018-08-04T03:31:43.475Z,98029.48
2018-08-04T03:34:12.309Z,98030.67
2018-08-04T03:36:41.050Z,98025.39
2018-08-04T03:39:11.338Z,98026.77
2018-08-04T03:41:40.882Z,98031.10
2018-08-04T03:44:09.643Z,98030.67
2018-08-04T03:46:38.755Z,98027.11
2018-08-04T03:49:07.569Z,98031.73
2018-08-04T03:51:36.322Z,98034.92
2018-08-04T03:54:05.136Z,98036.49
2018-08-04T03:56:33.870Z,98036.13
2018-08-04T03:59:02.646Z,98032.42
2018-08-04T04:01:31.359Z,98037.94
2018-08-04T04:04:00.042Z,98039.31
2018-08-04T04:06:28.725Z,98039.11
2018-08-04T04:08:57.646Z,98046.73
2018-08-04T04:11:26.317Z,98042.99
2018-08-04T04:13:55.026Z,98041.23
2018-08-04T04:16:23.794Z,98049.67
2018-08-04T04:18:52.815Z,98050.47
2018-08-04T04:21:21.533Z,98050.66
2018-08-04T04:23:50.251Z,98049.29
2018-08-04T04:26:18.911Z,98049.87
2018-08-04T04:28:47.861Z,98047.52
2018-08-04T04:31:16.766Z,98055.00
2018-08-04T04:33:45.630Z,98053.48
2018-08-04T04:36:14.435Z,98055.89
2018-08-04T04:38:43.241Z,98063.42
2018-08-04T04:41:11.969Z,98061.86
2018-08-04T04:43:40.658Z,98054.62
2018-08-04T04:46:09.477Z,98053.70
2018-08-04T04:48:38.189Z,98062.56
2018-08-04T04:51:07.047Z,98064.61
2018-08-04T04:53:35.689Z,98068.76
2018-08-04T04:56:04.562Z,98062.89
2018-08-04T04:58:33.349Z,98067.67
2018-08-04T05:01:02.101Z,98065.70
2018-08-04T05:03:30.810Z,98062.55
2018-08-04T05:05:59.605Z,98059.20
2018-08-04T05:08:28.242Z,98064.56
2018-08-04T05:10:56.982Z,98060.07
2018-08-04T05:13:25.702Z,98064.95
2018-08-04T05:15:54.509Z,98064.20
2018-08-04T05:18:23.231Z,98066.77
2018-08-04T05:20:51.877Z,98071.69
2018-08-04T05:23:20.586Z,98068.73
2018-08-04T05:25:49.292Z,98072.87
2018-08-04T05:28:17.942Z,98062.83
2018-08-04T05:30:46.637Z,98073.66
2018-08-04T05:33:15.362Z,98070.11
2018-08-04T05:35:44.046Z,98068.14
2018-08-04T05:38:12.805Z,98071.89
2018-08-04T05:40:41.585Z,98076.81
2018-08-04T05:43:10.320Z,98081.92
2018-08-04T05:45:38.957Z,98079.17
2018-08-04T05:48:07.695Z,98076.38
2018-08-04T05:50:36.374Z,98079.52
2018-08-04T05:53:05.173Z,98083.46
2018-08-04T05:55:33.901Z,98078.70
2018-08-04T05:58:02.793Z,98078.30
2018-08-04T06:00:31.630Z,98074.99
2018-08-04T06:03:00.384Z,98070.31
2018-08-04T06:05:29.114Z,98068.89
2018-08-04T06:07:57.760Z,98074.02
2018-08-04T06:10:26.459Z,98075.39
2018-08-04T06:12:55.157Z,98072.64
2018-08-04T06:15:23.977Z,98075.23
2018-08-04T06:17:52.708Z,98076.06
2018-08-04T06:20:21.409Z,98074.45
2018-08-04T06:22:50.090Z,98079.61
2018-08-04T06:25:18.756Z,98079.41
2018-08-04T06:27:47.604Z,98080.00
2018-08-04T06:30:16.364Z,98077.64
2018-08-04T06:32:45.150Z,98079.26
2018-08-04T06:35:13.931Z,98082.20
2018-08-04T06:37:42.610Z,98081.81
2018-08-04T06:40:11.277Z,98081.03
2018-08-04T06:42:40.140Z,98082.64
2018-08-04T06:45:08.998Z,98088.00
2018-08-04T06:47:37.653Z,98088.39
2018-08-04T06:50:07.109Z,98090.75
2018-08-04T06:52:36.183Z,98087.02
2018-08-04T06:55:05.679Z,98095.19
2018-08-04T06:57:34.479Z,98090.88
2018-08-04T07:00:03.311Z,98089.50
2018-08-04T07:02:32.542Z,98096.45
2018-08-04T07:05:01.188Z,98096.89
2018-08-04T07:07:30.173Z,98096.13
2018-08-04T07:09:58.929Z,98099.34
2018-08-04T07:12:27.593Z,98096.78
2018-08-04T07:14:56.441Z,98091.86
2018-08-04T07:17:25.197Z,98089.48
2018-08-04T07:19:53.896Z,98088.09
2018-08-04T07:22:22.603Z,98097.38
2018-08-04T07:24:51.599Z,98085.95
2018-08-04T07:27:20.709Z,98090.27
2018-08-04T07:29:49.343Z,98083.62
2018-08-04T07:32:18.173Z,98090.14
2018-08-04T07:34:47.095Z,98089.14
2018-08-04T07:37:15.721Z,98086.88
2018-08-04T07:39:44.558Z,98090.39
2018-08-04T07:42:13.385Z,98090.50
2018-08-04T07:44:42.126Z,98091.24
2018-08-04T07:47:10.807Z,98091.75
2018-08-04T07:49:39.545Z,98092.25
2018-08-04T07:52:08.691Z,98089.58
2018-08-04T07:54:37.888Z,98085.70
2018-08-04T07:57:06.782Z,98095.16
2018-08-04T07:59:35.696Z,98089.59
2018-08-04T08:02:04.455Z,98089.47
2018-08-04T08:04:33.331Z,98091.52
2018-08-04T08:07:02.198Z,98088.93
2018-08-04T08:09:31.454Z,98096.74
2018-08-04T08:12:00.227Z,98094.41
2018-08-04T08:14:28.929Z,98090.41
2018-08-04T08:16:57.593Z,98091.04
2018-08-04T08:19:26.673Z,98086.48
2018-08-04T08:21:55.365Z,98088.97
2018-08-04T08:24:24.059Z,98083.13
2018-08-04T08:26:52.724Z,98082.39
2018-08-04T08:29:21.688Z,98083.31
2018-08-04T08:31:50.609Z,98084.47
2018-08-04T08:34:19.625Z,98086.69
2018-08-04T08:36:48.419Z,98087.73
2018-08-04T08:39:17.101Z,98082.20
2018-08-04T08:41:45.906Z,98084.89
2018-08-04T08:44:14.800Z,98086.19
2018-08-04T08:46:43.703Z,98082.11
2018-08-04T08:49:12.600Z,98075.80
2018-08-04T08:51:42.990Z,98070.85
2018-08-04T08:54:12.417Z,98068.17
2018-08-04T08:56:41.211Z,98068.55
2018-08-04T08:59:10.700Z,98069.50
2018-08-04T09:01:39.492Z,98068.59
2018-08-04T09:04:08.703Z,98059.90
2018-08-04T09:06:37.577Z,98060.78
2018-08-04T09:09:08.921Z,98060.70
2018-08-04T09:11:37.722Z,98068.45
2018-08-04T09:14:06.806Z,98061.84
2018-08-04T09:16:35.482Z,98066.66
2018-08-04T09:19:04.521Z,98067.48
2018-08-04T09:21:33.249Z,98070.83
2018-08-04T09:24:01.896Z,98077.52
2018-08-04T09:26:30.641Z,98063.50
2018-08-04T09:28:59.328Z,98067.25
2018-08-04T09:31:28.041Z,98065.21
2018-08-04T09:33:56.717Z,98064.33
2018-08-04T09:36:25.390Z,98067.66
2018-08-04T09:38:54.032Z,98066.89
2018-08-04T09:41:22.750Z,98061.24
2018-08-04T09:43:51.380Z,98059.83
2018-08-04T09:46:20.938Z,98060.19
2018-08-04T09:48:49.764Z,98064.34
2018-08-04T09:51:18.402Z,98063.13
2018-08-04T09:53:47.047Z,98063.66
2018-08-04T09:56:15.833Z,98054.27
2018-08-04T09:58:44.465Z,98061.06
2018-08-04T10:01:18.528Z,98059.42
2018-08-04T10:03:56.910Z,98064.56
2018-08-04T10:06:26.000Z,98054.78
2018-08-04T10:08:54.832Z,98052.00
2018-08-04T10:11:23.617Z,98056.52
2018-08-04T10:13:52.469Z,98058.28
2018-08-04T10:16:21.268Z,98050.43
2018-08-04T10:18:50.030Z,98052.51
2018-08-04T10:21:18.734Z,98056.52
2018-08-04T10:23:47.442Z,98051.14
2018-08-04T10:26:16.090Z,98051.23
2018-08-04T10:28:44.804Z,98053.92
2018-08-04T10:31:13.450Z,98063.52
2018-08-04T10:33:42.309Z,98054.92
2018-08-04T10:36:11.070Z,98053.39
2018-08-04T10:38:39.881Z,98049.58
2018-08-04T10:41:08.649Z,98051.48
2018-08-04T10:43:37.368Z,98050.05
2018-08-04T10:46:06.162Z,98042.95
2018-08-04T10:48:34.998Z,98046.06
2018-08-04T10:51:04.238Z,98038.57
2018-08-04T10:53:32.954Z,98038.55
2018-08-04T10:56:01.701Z,98031.36
2018-08-04T10:58:30.481Z,98028.95
2018-08-04T11:00:59.401Z,98028.42
2018-08-04T11:03:28.196Z,98024.56
2018-08-04T11:05:56.942Z,98024.09
2018-08-04T11:08:25.614Z,98027.94
2018-08-04T11:10:54.257Z,98020.05
2018-08-04T11:13:23.338Z,98021.39
2018-08-04T11:15:52.107Z,98020.08
2018-08-04T11:18:20.899Z,98014.77
2018-08-04T11:20:49.617Z,98017.83
2018-08-04T11:23:18.265Z,98008.86
2018-08-04T11:25:47.019Z,98007.75
2018-08-04T11:28:15.911Z,98003.33
2018-08-04T11:30:44.584Z,97998.07
2018-08-04T11:33:13.309Z,97990.29
2018-08-04T11:35:41.957Z,97989.34
2018-08-04T11:38:10.654Z,97981.52
2018-08-04T11:40:39.507Z,97988.13
2018-08-04T11:43:08.185Z,97982.38
2018-08-04T11:45:37.032Z,97978.41
2018-08-04T11:48:05.745Z,97979.99
2018-08-04T11:50:34.542Z,97978.09
2018-08-04T11:53:03.400Z,97982.63
2018-08-04T11:55:32.221Z,97966.23
2018-08-04T11:58:01.209Z,97970.57
2018-08-04T12:00:29.897Z,97969.23
2018-08-04T12:02:58.731Z,97963.59
2018-08-04T12:05:27.526Z,97965.77
2018-08-04T12:07:56.281Z,97961.99
2018-08-04T12:10:25.092Z,97952.52
2018-08-04T12:12:53.857Z,97948.49
2018-08-04T12:15:22.529Z,97942.52
2018-08-04T12:17:51.295Z,97936.86
2018-08-04T12:20:19.998Z,97933.78
2018-08-04T12:22:49.234Z,97923.98
2018-08-04T12:25:17.964Z,97923.45
2018-08-04T12:27:46.746Z,97928.48
2018-08-04T12:30:15.419Z,97933.80
2018-08-04T12:32:44.144Z,97932.76
2018-08-04T12:35:13.187Z,97933.67
2018-08-04T12:37:41.813Z,97931.44
2018-08-04T12:40:10.454Z,97935.53
2018-08-04T12:42:39.117Z,97937.91
2018-08-04T12:45:08.627Z,97936.05
2018-08-04T12:47:37.739Z,97929.84
2018-08-04T12:50:06.785Z,97922.64
2018-08-04T12:52:35.504Z,97923.13
2018-08-04T12:55:04.349Z,97924.03
2018-08-04T12:57:33.210Z,97915.39
2018-08-04T13:00:02.095Z,97899.02
2018-08-04T13:02:30.879Z,97899.53
2018-08-04T13:04:59.659Z,97890.41
2018-08-04T13:07:29.427Z,97888.14
2018-08-04T13:09:58.123Z,97885.05
2018-08-04T13:12:27.079Z,97886.80
2018-08-04T13:14:55.851Z,97877.61
2018-08-04T13:17:24.699Z,97874.24
2018-08-04T13:19:54.145Z,97871.42
2018-08-04T13:22:23.044Z,97878.41
2018-08-04T13:24:52.122Z,97874.86
2018-08-04T13:27:21.102Z,97877.19
2018-08-04T13:29:49.882Z,97867.66
2018-08-04T13:32:18.782Z,97874.96
2018-08-04T13:34:47.787Z,97876.38
2018-08-04T13:37:16.831Z,97879.87
2018-08-04T13:39:45.514Z,97884.97
2018-08-04T13:42:14.590Z,97879.49
2018-08-04T13:44:43.338Z,97871.85
2018-08-04T13:47:12.018Z,97875.17
2018-08-04T13:49:40.683Z,97867.03
2018-08-04T13:52:09.425Z,97861.52
2018-08-04T13:54:38.379Z,97862.92
2018-08-04T13:57:07.301Z,97862.87
2018-08-04T13:59:36.115Z,97868.00
2018-08-04T14:02:04.964Z,97863.27
2018-08-04T14:04:33.662Z,97870.50
2018-08-04T14:07:02.376Z,97880.25
2018-08-04T14:09:31.038Z,97888.38
2018-08-04T14:11:59.946Z,97900.23
2018-08-04T14:14:28.681Z,97926.00
2018-08-04T14:16:57.428Z,97943.62
2018-08-04T14:19:26.296Z,97969.22
2018-08-04T14:21:54.993Z,98004.83
2018-08-04T14:24:23.803Z,98031.61
2018-08-04T14:26:52.798Z,98094.31
2018-08-04T14:29:21.560Z,98059.17
2018-08-04T14:31:50.287Z,97991.28
2018-08-04T14:34:19.026Z,97970.86
2018-08-04T14:36:47.762Z,97969.02
2018-08-04T14:39:16.545Z,97958.73
2018-08-04T14:41:45.343Z,97955.61
2018-08-04T14:44:14.220Z,97942.41
2018-08-04T14:46:42.885Z,97940.87
2018-08-04T14:49:11.561Z,97936.08
2018-08-04T14:51:40.248Z,97933.97
2018-08-04T14:54:08.953Z,97925.52
2018-08-04T14:56:37.642Z,97917.42
2018-08-04T14:59:07.134Z,97912.29
2018-08-04T15:01:36.150Z,97907.53
2018-08-04T15:04:04.894Z,97901.92
2018-08-04T15:06:33.868Z,97893.68
2018-08-04T15:09:02.562Z,97888.70
2018-08-04T15:11:31.311Z,97876.95
2018-08-04T15:14:00.074Z,97872.01
2018-08-04T15:16:28.962Z,97874.75
2018-08-04T15:18:57.641Z,97874.15
2018-08-04T15:21:26.690Z,97881.50
2018-08-04T15:23:55.564Z,97884.07
2018-08-04T15:26:24.913Z,97880.48
2018-08-04T15:28:53.727Z,97872.31
2018-08-04T15:31:22.561Z,97871.92
2018-08-04T15:33:51.377Z,97900.84
2018-08-04T15:36:20.194Z,97912.14
2018-08-04T15:38:49.207Z,97932.16
2018-08-04T15:41:18.286Z,97941.69
2018-08-04T15:43:47.013Z,97950.09
2018-08-04T15:46:15.821Z,97952.26
2018-08-04T15:48:44.547Z,97942.36
2018-08-04T15:51:13.286Z,97936.81
2018-08-04T15:53:42.130Z,97942.13
2018-08-04T15:56:11.089Z,97946.25
2018-08-04T15:58:39.830Z,97954.03
2018-08-04T16:01:08.616Z,97956.34
2018-08-04T16:03:37.305Z,97957.84
2018-08-04T16:06:06.230Z,97954.11
2018-08-04T16:08:34.974Z,97953.11
2018-08-04T16:11:03.753Z,97948.41
2018-08-04T16:13:32.504Z,97961.89
2018-08-04T16:16:01.314Z,97964.89
2018-08-04T16:18:30.113Z,97949.73
2018-08-04T16:20:58.917Z,97950.34
2018-08-04T16:23:27.920Z,97947.77
2018-08-04T16:25:56.585Z,97938.48
2018-08-04T16:28:25.519Z,97944.39
2018-08-04T16:30:54.361Z,97945.44
2018-08-04T16:33:23.041Z,97961.75
2018-08-04T16:35:52.321Z,97964.38
2018-08-04T16:38:21.049Z,97963.34
2018-08-04T16:40:49.765Z,97968.80
2018-08-04T16:43:18.560Z,97959.46
2018-08-04T16:45:47.450Z,97962.60
2018-08-04T16:48:16.174Z,97961.47
2018-08-04T16:50:44.874Z,97962.74
2018-08-04T16:53:13.728Z,97957.27
2018-08-04T16:55:42.367Z,97959.18
2018-08-04T16:58:11.052Z,97963.70
2018-08-04T17:00:39.810Z,97964.16
2018-08-04T17:03:08.524Z,97963.00
2018-08-04T17:05:37.347Z,97956.19
2018-08-04T17:08:06.933Z,97949.84
2018-08-04T17:10:35.919Z,97947.78
2018-08-04T17:13:04.716Z,97949.55
2018-08-04T17:15:33.375Z,97951.44
2018-08-04T17:18:02.436Z,97943.55
2018-08-04T17:20:31.111Z,97943.87
2018-08-04T17:22:59.804Z,97944.24
2018-08-04T17:25:28.558Z,97947.48
2018-08-04T17:27:57.230Z,97935.34
2018-08-04T17:30:31.594Z,97931.23
2018-08-04T17:33:00.354Z,97930.52
2018-08-04T17:35:29.387Z,97933.23
2018-08-04T17:37:58.068Z,97928.62
2018-08-04T17:40:27.066Z,97921.09
2018-08-04T17:42:55.848Z,97930.19
2018-08-04T17:45:24.572Z,97932.48
2018-08-04T17:47:53.299Z,97932.15
2018-08-04T17:50:22.418Z,97935.17
2018-08-04T17:52:51.410Z,97936.22
2018-08-04T17:55:20.296Z,97942.41
2018-08-04T17:57:49.293Z,97944.20
2018-08-04T18:00:18.850Z,97950.34
2018-08-04T18:02:47.500Z,97949.00
2018-08-04T18:05:16.349Z,97946.78
2018-08-04T18:07:45.047Z,97946.49
2018-08-04T18:10:13.852Z,97945.69
2018-08-04T18:12:42.617Z,97944.03
2018-08-04T18:15:11.807Z,97932.85
2018-08-04T18:17:40.478Z,97933.24
2018-08-04T18:20:09.281Z,97935.37
2018-08-04T18:22:38.043Z,97938.14
2018-08-04T18:25:07.478Z,97936.06
2018-08-04T18:27:36.310Z,97944.30
2018-08-04T18:30:05.089Z,97942.03
2018-08-04T18:32:34.618Z,97943.56
2018-08-04T18:35:03.532Z,97943.81
2018-08-04T18:37:32.257Z,97941.34
2018-08-04T18:40:00.936Z,97945.03
2018-08-04T18:42:30.206Z,97948.31
2018-08-04T18:44:59.050Z,97956.50
2018-08-04T18:47:27.736Z,97954.41
2018-08-04T18:49:56.484Z,97952.73
2018-08-04T18:52:25.176Z,97951.88
2018-08-04T18:54:53.942Z,97956.45
2018-08-04T18:57:22.904Z,97963.38
2018-08-04T18:59:52.301Z,97960.61
2018-08-04T19:02:21.078Z,97969.75
2018-08-04T19:04:49.764Z,97966.84
2018-08-04T19:07:18.573Z,97969.61
2018-08-04T19:09:48.104Z,97975.55
2018-08-04T19:12:16.775Z,97974.78
2018-08-04T19:14:45.571Z,97981.78
2018-08-04T19:17:14.338Z,97990.31
2018-08-04T19:19:43.045Z,97988.97
2018-08-04T19:22:11.918Z,97990.57
2018-08-04T19:24:40.572Z,97992.14
2018-08-04T19:27:09.340Z,97990.61
2018-08-04T19:29:38.030Z,97989.84
2018-08-04T19:32:06.832Z,97987.73
2018-08-04T19:34:35.911Z,97991.73
2018-08-04T19:37:04.738Z,97987.39
2018-08-04T19:39:33.651Z,97982.67
2018-08-04T19:42:02.506Z,97988.80
2018-08-04T19:44:31.327Z,97988.00
2018-08-04T19:47:00.077Z,97984.44
2018-08-04T19:49:29.009Z,97982.30
2018-08-04T19:51:57.699Z,97976.95
2018-08-04T19:54:26.517Z,97984.06
2018-08-04T19:56:55.709Z,97978.53
2018-08-04T19:59:24.510Z,97981.48
2018-08-04T20:01:53.281Z,97980.70
2018-08-04T20:04:22.273Z,97985.06
2018-08-04T20:06:51.053Z,97984.08
2018-08-04T20:09:19.685Z,97988.80
2018-08-04T20:11:48.522Z,97990.80
2018-08-04T20:14:17.181Z,97985.09
2018-08-04T20:16:45.829Z,97982.13
2018-08-04T20:19:14.585Z,97984.70
2018-08-04T20:21:43.297Z,97986.48
2018-08-04T20:24:12.466Z,97991.44
2018-08-04T20:26:41.230Z,97989.04
2018-08-04T20:29:10.136Z,97993.01
2018-08-04T20:31:38.939Z,97995.95
2018-08-04T20:34:07.578Z,98002.45
2018-08-04T20:36:36.627Z,98005.39
2018-08-04T20:39:08.348Z,98007.55
2018-08-04T20:41:37.468Z,98004.21
2018-08-04T20:44:06.239Z,98000.67
2018-08-04T20:46:34.956Z,98007.96
2018-08-04T20:49:03.793Z,98004.20
2018-08-04T20:51:32.494Z,98002.05
2018-08-04T20:54:01.192Z,98000.45
2018-08-04T20:56:30.085Z,98002.82
2018-08-04T20:58:58.727Z,98002.43
2018-08-04T21:02:08.672Z,98007.14
2018-08-04T21:04:37.818Z,98003.99
2018-08-04T21:07:07.451Z,98004.80
2018-08-04T21:09:36.201Z,98017.00
2018-08-04T21:12:04.897Z,98000.44
2018-08-04T21:14:34.002Z,98006.13
2018-08-04T21:17:03.283Z,98002.98
2018-08-04T21:19:32.014Z,97999.63
2018-08-04T21:22:00.966Z,98002.38
2018-08-04T21:24:29.672Z,98007.11
2018-08-04T21:26:58.452Z,98003.36
2018-08-04T21:29:27.265Z,98007.31
2018-08-04T21:31:57.108Z,98010.63
2018-08-04T21:34:25.808Z,98006.25
2018-08-04T21:36:54.529Z,98017.06
2018-08-04T21:39:23.245Z,98025.48
2018-08-04T21:41:51.966Z,98019.17
2018-08-04T21:44:20.854Z,98024.52
2018-08-04T21:46:50.631Z,98027.09
2018-08-04T21:49:19.986Z,98023.34
2018-08-04T21:51:49.939Z,98019.37
2018-08-04T21:54:19.921Z,98014.28
2018-08-04T21:56:48.769Z,98019.59
2018-08-04T21:59:17.430Z,98012.50
2018-08-04T22:01:51.336Z,98012.05
2018-08-04T22:04:19.910Z,98012.61
2018-08-04T22:07:59.602Z,98013.40
2018-08-04T22:10:28.582Z,98021.63
2018-08-04T22:12:57.797Z,98020.25
2018-08-04T22:15:26.759Z,98015.52
2018-08-04T22:17:55.570Z,98013.36
2018-08-04T22:20:25.058Z,98009.38
2018-08-04T22:22:54.090Z,98008.59
2018-08-04T22:25:25.385Z,98008.75
2018-08-04T22:27:54.850Z,98008.95
2018-08-04T22:30:24.297Z,98000.48
2018-08-04T22:32:53.737Z,98009.66
2018-08-04T22:35:22.828Z,97999.77
2018-08-04T22:38:04.717Z,98007.21
2018-08-04T22:40:33.540Z,98004.45
2018-08-04T22:43:02.391Z,98016.06
2018-08-04T22:46:09.809Z,98013.30
2018-08-04T22:48:38.705Z,98013.65
2018-08-04T22:51:07.719Z,98004.36
2018-08-04T22:53:37.093Z,98005.34
2018-08-04T22:56:06.046Z,98000.95
2018-08-04T22:58:34.775Z,97991.64
2018-08-04T23:01:03.559Z,97996.91
2018-08-04T23:03:32.222Z,97998.29
2018-08-04T23:06:01.455Z,97996.16
2018-08-04T23:08:30.212Z,98001.48
2018-08-04T23:10:58.877Z,98003.25
2018-08-04T23:13:27.619Z,98001.08
2018-08-04T23:15:56.350Z,97994.79
2018-08-04T23:18:25.201Z,98001.23
2018-08-04T23:20:53.943Z,98008.06
2018-08-04T23:23:22.684Z,98008.84
2018-08-04T23:25:51.342Z,98006.27
2018-08-04T23:28:20.010Z,98011.59
2018-08-04T23:30:48.742Z,98013.74
2018-08-04T23:33:17.589Z,98013.25
2018-08-04T23:35:46.545Z,98016.73
2018-08-04T23:38:15.285Z,98018.50
2018-08-04T23:40:43.968Z,98017.91
2018-08-04T23:43:12.978Z,98019.29
2018-08-04T23:45:41.633Z,98015.36
2018-08-04T23:48:10.359Z,98010.40
2018-08-04T23:50:39.079Z,98009.99
2018-08-04T23:53:07.921Z,98002.33
2018-08-04T23:55:36.703Z,97997.22
2018-08-04T23:58:05.625Z,97999.17
